<?xml version='1.0' encoding='UTF-8'?>
<gpx xmlns="http://www.topografix.com/GPX/1/1" creator="www.balnam.be" version="1.1" xmlns:xsi="http://www.w3.org/2001/XMLSchema-instance" xsi:schemaLocation="http://www.topografix.com/GPX/1/1 http://www.topografix.com/GPX/1/1/gpx.xsd">
<trk>
<name>hbnpr29</name>
<cmt>v</cmt>
<desc>Pommeroeul Chemin n°29 </desc>
<link href="https://chemins.be/pommeroeul/chemin/29"/><trkseg>
<trkpt lat="50.458267" lon="3.709308"><time>2026-05-02T22:27:10Z</time></trkpt>
<trkpt lat="50.458268" lon="3.709239"><time>2026-05-02T22:37:10Z</time></trkpt>
<trkpt lat="50.458211" lon="3.708971"><time>2026-05-02T22:47:10Z</time></trkpt>
<trkpt lat="50.458168" lon="3.708765"><time>2026-05-02T22:57:10Z</time></trkpt>
<trkpt lat="50.458122" lon="3.708467"><time>2026-05-02T23:07:10Z</time></trkpt>
<trkpt lat="50.458107" lon="3.708295"><time>2026-05-02T23:17:10Z</time></trkpt>
<trkpt lat="50.458108" lon="3.707964"><time>2026-05-02T23:27:10Z</time></trkpt>
<trkpt lat="50.458124" lon="3.707671"><time>2026-05-02T23:37:10Z</time></trkpt>
<trkpt lat="50.458132" lon="3.707397"><time>2026-05-02T23:47:10Z</time></trkpt>
<trkpt lat="50.458117" lon="3.707178"><time>2026-05-02T23:57:10Z</time></trkpt>
<trkpt lat="50.458062" lon="3.706977"><time>2026-05-03T00:07:10Z</time></trkpt>
<trkpt lat="50.457965" lon="3.706757"><time>2026-05-03T00:17:10Z</time></trkpt>
<trkpt lat="50.457874" lon="3.706561"><time>2026-05-03T00:27:10Z</time></trkpt>
<trkpt lat="50.457814" lon="3.706371"><time>2026-05-03T00:37:10Z</time></trkpt>
<trkpt lat="50.457748" lon="3.706035"><time>2026-05-03T00:47:10Z</time></trkpt>
<trkpt lat="50.457681" lon="3.705735"><time>2026-05-03T00:57:10Z</time></trkpt>
<trkpt lat="50.457562" lon="3.705427"><time>2026-05-03T01:07:10Z</time></trkpt>
<trkpt lat="50.457365" lon="3.704917"><time>2026-05-03T01:17:10Z</time></trkpt>
<trkpt lat="50.457292" lon="3.704678"><time>2026-05-03T01:27:10Z</time></trkpt>
<trkpt lat="50.457191" lon="3.704432"><time>2026-05-03T01:37:10Z</time></trkpt>
<trkpt lat="50.457147" lon="3.704298"><time>2026-05-03T01:47:10Z</time></trkpt>
<trkpt lat="50.457173" lon="3.703986"><time>2026-05-03T01:57:10Z</time></trkpt>
</trkseg></trk>
<trk>
<name>hbnpr29</name>
<cmt>s</cmt>
<desc>Pommeroeul Chemin n°29 </desc>
<link href="https://chemins.be/pommeroeul/chemin/29"/><trkseg>
<trkpt lat="50.457173" lon="3.703986"><time>2026-05-03T01:57:10Z</time></trkpt>
<trkpt lat="50.456299" lon="3.701710"><time>2026-05-03T02:07:10Z</time></trkpt>
</trkseg></trk>
<trk>
<name>hbnpr29</name>
<cmt>q</cmt>
<desc>Pommeroeul Chemin n°29 </desc>
<link href="https://chemins.be/pommeroeul/chemin/29"/><trkseg>
<trkpt lat="50.456299" lon="3.701710"><time>2026-05-03T02:07:10Z</time></trkpt>
<trkpt lat="50.455916" lon="3.700713"><time>2026-05-03T02:17:10Z</time></trkpt>
</trkseg>
</trk>
</gpx>